Time;durP1;ratioP1;P1;durP2;ratioP2;P2;SDS_P1;SDS_P2;PMS_P1;PMS_P2;Temp;Humidity;BMP_temperature;BMP_pressure;BME280_temperature;BME280_humidity;BME280_pressure;Samples;Min_cycle;Max_cycle;Signal;HPM_P1;HPM_P2
2020/12/13 00:01:28;;;;;;;14.57;5.72;;;;;;;-3.05;50.23;100172.78;10500082;28;20055;-52
2020/12/13 00:06:32;;;;;;;15.00;6.15;;;;;;;-3.01;50.15;100174.44;10499200;28;20401;-53
2020/12/13 00:11:35;;;;;;;10.93;4.55;;;;;;;-2.97;50.38;100175.22;10500192;28;20058;-52
2020/12/13 00:16:37;;;;;;;16.95;5.85;;;;;;;-2.84;50.54;100163.75;10500474;28;20078;-55
2020/12/13 00:21:39;;;;;;;29.23;4.05;;;;;;;-2.81;50.66;100164.53;10505513;28;20139;-55
2020/12/13 00:26:41;;;;;;;10.13;4.20;;;;;;;-2.87;51.10;100164.66;10506734;28;20056;-53
2020/12/13 00:31:43;;;;;;;13.82;5.22;;;;;;;-3.00;52.24;100145.25;10506371;28;20060;-55
2020/12/13 00:36:49;;;;;;;7.97;3.58;;;;;;;-2.97;52.53;100147.75;10504847;28;20058;-53
2020/12/13 00:41:52;;;;;;;8.10;3.95;;;;;;;-3.03;53.46;100164.16;10505743;28;20048;-52
2020/12/13 00:46:54;;;;;;;14.35;5.70;;;;;;;-3.00;53.93;100142.69;10489202;28;20052;-54
2020/12/13 00:52:01;;;;;;;7.97;3.05;;;;;;;-3.01;54.58;100141.84;10463936;28;20481;-52
2020/12/13 00:57:04;;;;;;;16.30;6.25;;;;;;;-2.93;54.20;100149.38;10464860;28;20065;-53
2020/12/13 01:02:06;;;;;;;12.73;4.65;;;;;;;-2.77;54.21;100139.59;10465328;28;20468;-58
2020/12/13 01:07:08;;;;;;;13.50;5.07;;;;;;;-2.67;54.08;100145.38;10463525;28;20045;-52
2020/12/13 01:12:10;;;;;;;14.73;4.82;;;;;;;-2.61;53.97;100147.78;10463384;28;20055;-54
2020/12/13 01:17:15;;;;;;;13.10;4.90;;;;;;;-2.54;53.60;100123.59;10463065;28;20138;-55
2020/12/13 01:22:17;;;;;;;15.27;5.55;;;;;;;-2.51;53.65;100120.94;10463620;28;20049;-52
2020/12/13 01:27:19;;;;;;;6.25;2.75;;;;;;;-2.43;53.64;100129.31;10466281;28;20041;-52
2020/12/13 01:32:21;;;;;;;12.45;4.57;;;;;;;-2.42;52.79;100117.28;10462018;28;20371;-55
2020/12/13 01:37:23;;;;;;;7.53;3.55;;;;;;;-2.39;52.39;100128.34;10461908;28;20567;-58
2020/12/13 01:42:25;;;;;;;12.88;4.85;;;;;;;-2.40;52.33;100124.09;10461124;28;20057;-52
2020/12/13 01:47:28;;;;;;;14.95;6.25;;;;;;;-2.38;52.25;100132.59;10461854;28;20041;-52
2020/12/13 01:52:47;;;;;;;3.25;1.05;;;;;;;-2.36;52.29;100112.81;10460641;28;20063;-55
2020/12/13 01:57:54;;;;;;;5.22;2.03;;;;;;;-2.40;51.50;100118.94;10461572;28;20369;-55
2020/12/13 02:03:01;;;;;;;12.68;3.95;;;;;;;-2.33;51.63;100114.47;10459306;28;20053;-53
2020/12/13 02:08:06;;;;;;;10.48;3.90;;;;;;;-2.26;51.25;100126.31;10460955;28;20063;-51
2020/12/13 02:13:07;;;;;;;10.55;4.68;;;;;;;-2.32;51.18;100116.16;10460336;28;20052;-51
2020/12/13 02:18:10;;;;;;;16.65;4.32;;;;;;;-2.21;50.75;100123.63;10460998;28;20378;-57
2020/12/13 02:23:13;;;;;;;9.70;4.30;;;;;;;-2.27;50.05;100116.06;10459940;28;20053;-52
2020/12/13 02:28:15;;;;;;;12.85;4.68;;;;;;;-2.21;50.19;100119.31;10459704;28;20041;-55
2020/12/13 02:33:17;;;;;;;11.85;4.15;;;;;;;-2.18;49.84;100129.53;10460932;28;20080;-52
2020/12/13 02:38:19;;;;;;;7.93;3.40;;;;;;;-2.25;49.56;100109.13;10462608;28;20059;-55
2020/12/13 02:43:21;;;;;;;13.10;4.82;;;;;;;-2.25;49.68;100104.81;10460341;28;20064;-52
2020/12/13 02:48:23;;;;;;;12.48;4.65;;;;;;;-2.09;49.35;100107.84;10460298;28;20045;-55
2020/12/13 02:53:25;;;;;;;11.18;4.20;;;;;;;-2.11;48.79;100099.31;10458997;28;20115;-52
2020/12/13 02:58:27;;;;;;;8.27;2.42;;;;;;;-2.21;48.96;100103.03;10458712;28;20057;-51
2020/12/13 03:03:28;;;;;;;7.35;2.95;;;;;;;-2.34;49.74;100093.03;10459471;28;20109;-52
2020/12/13 03:08:31;;;;;;;10.43;3.90;;;;;;;-2.41;49.79;100091.50;10459705;28;20496;-53
2020/12/13 03:13:33;;;;;;;16.40;5.35;;;;;;;-2.43;50.28;100093.28;10459765;28;20103;-51
2020/12/13 03:18:34;;;;;;;8.65;4.22;;;;;;;-2.40;50.32;100077.75;10459427;28;20098;-51
2020/12/13 03:23:37;;;;;;;9.13;3.40;;;;;;;-2.42;50.67;100074.38;10459375;28;20432;-55
2020/12/13 03:28:38;;;;;;;13.40;3.42;;;;;;;-2.40;50.23;100067.44;10460753;28;20492;-56
2020/12/13 03:33:40;;;;;;;10.93;3.63;;;;;;;-2.48;50.62;100071.94;10459399;28;20044;-52
2020/12/13 03:38:43;;;;;;;12.23;2.90;;;;;;;-2.61;50.22;100068.00;10458440;28;20428;-52
2020/12/13 03:43:45;;;;;;;6.18;2.80;;;;;;;-2.64;49.97;100057.78;10458271;28;20363;-55
2020/12/13 03:48:46;;;;;;;11.82;4.72;;;;;;;-2.63;49.64;100057.72;10458361;28;20049;-55
2020/12/13 03:53:49;;;;;;;9.23;3.35;;;;;;;-2.49;49.75;100062.53;10463392;28;20468;-53
2020/12/13 03:58:51;;;;;;;14.48;4.60;;;;;;;-2.30;49.22;100064.63;10465867;28;20057;-52
2020/12/13 04:03:52;;;;;;;15.80;4.40;;;;;;;-2.22;48.38;100073.81;10465878;28;20063;-51
2020/12/13 04:08:55;;;;;;;11.13;4.32;;;;;;;-2.35;48.36;100099.06;10465784;28;20072;-53
2020/12/13 04:13:56;;;;;;;8.48;3.75;;;;;;;-2.48;48.29;100066.78;10465168;28;20045;-52
2020/12/13 04:18:58;;;;;;;12.40;3.40;;;;;;;-2.45;48.24;100063.31;10465087;28;20055;-52
2020/12/13 04:24:01;;;;;;;9.07;3.38;;;;;;;-2.48;47.96;100056.50;10465751;28;20049;-52
2020/12/13 04:29:02;;;;;;;9.18;3.60;;;;;;;-2.49;48.06;100071.97;10464034;28;20045;-53
2020/12/13 04:34:04;;;;;;;10.02;3.70;;;;;;;-2.51;47.76;100084.91;10464057;28;20060;-53
2020/12/13 04:39:07;;;;;;;8.38;2.80;;;;;;;-2.54;47.80;100095.28;10464302;28;20514;-51
2020/12/13 04:44:08;;;;;;;12.40;3.95;;;;;;;-2.61;48.72;100062.84;10463948;28;20056;-52
2020/12/13 04:49:10;;;;;;;8.80;3.72;;;;;;;-2.59;48.94;100077.34;10463804;28;20044;-55
2020/12/13 04:54:20;;;;;;;8.35;2.35;;;;;;;-2.39;48.73;100069.13;10462718;28;20048;-52
2020/12/13 04:59:22;;;;;;;7.82;2.78;;;;;;;-2.42;48.27;100073.53;10464861;28;20099;-55
2020/12/13 05:04:24;;;;;;;10.18;4.13;;;;;;;-2.44;48.25;100063.25;10462155;28;20065;-54
2020/12/13 05:09:26;;;;;;;11.70;4.55;;;;;;;-2.42;47.90;100079.50;10464618;28;20041;-53
2020/12/13 05:14:28;;;;;;;5.63;2.20;;;;;;;-2.54;47.97;100084.97;10463257;28;20045;-51
2020/12/13 05:19:30;;;;;;;8.95;3.58;;;;;;;-2.58;48.36;100073.06;10463441;28;20346;-54
2020/12/13 05:24:33;;;;;;;8.88;2.60;;;;;;;-2.45;48.23;100074.44;10463475;28;20111;-55
2020/12/13 05:29:37;;;;;;;8.43;3.13;;;;;;;-2.40;48.07;100088.06;10463434;28;20083;-54
2020/12/13 05:34:41;;;;;;;7.82;2.63;;;;;;;-2.63;48.28;100074.91;10462478;28;20064;-52
2020/12/13 05:39:45;;;;;;;3.08;1.35;;;;;;;-2.76;48.62;100073.53;10461771;28;20457;-52
2020/12/13 05:50:27;;;;;;;8.20;2.35;;;;;;;-2.59;48.29;100074.78;10458232;28;20425;-51
2020/12/13 05:55:30;;;;;;;9.52;2.92;;;;;;;-2.63;48.64;100082.63;10462512;28;20053;-55
2020/12/13 06:00:33;;;;;;;4.47;1.73;;;;;;;-2.64;48.74;100086.09;10461474;28;20075;-52
2020/12/13 06:05:36;;;;;;;7.87;3.00;;;;;;;-2.66;48.79;100075.00;10460635;28;20045;-58
2020/12/13 06:10:43;;;;;;;11.97;4.00;;;;;;;-2.71;48.51;100079.41;10460973;28;20106;-55
2020/12/13 06:15:47;;;;;;;9.63;2.88;;;;;;;-2.66;48.79;100082.72;10460254;28;20378;-52
2020/12/13 06:20:50;;;;;;;10.50;4.15;;;;;;;-2.64;48.45;100083.53;10459812;28;20056;-55
2020/12/13 06:25:53;;;;;;;13.27;2.33;;;;;;;-2.61;48.35;100078.31;10459847;28;20107;-53
2020/12/13 06:30:55;;;;;;;10.43;4.18;;;;;;;-2.73;48.69;100083.75;10459412;28;20053;-52
2020/12/13 06:36:01;;;;;;;11.05;3.70;;;;;;;-2.76;48.72;100084.66;10459531;28;20397;-55
2020/12/13 06:41:12;;;;;;;8.07;3.28;;;;;;;-2.71;48.20;100092.25;10460206;28;20041;-53
2020/12/13 06:46:16;;;;;;;8.95;3.75;;;;;;;-2.71;48.46;100067.41;10460297;28;20446;-51
2020/12/13 06:51:18;;;;;;;;;;;;;;;-2.78;48.40;100082.13;10458840;28;20045;-55
2020/12/13 06:56:22;;;;;;;7.18;2.80;;;;;;;-2.72;48.41;100088.00;10458726;28;19935;-51
2020/12/13 07:01:26;;;;;;;12.77;4.05;;;;;;;-2.74;48.43;100087.19;10458664;28;20113;-54
2020/12/13 07:06:56;;;;;;;7.00;1.98;;;;;;;-2.96;48.69;100107.44;10458683;28;20135;-53
2020/12/13 07:12:01;;;;;;;14.50;4.45;;;;;;;-3.13;49.35;100106.13;10449884;28;20056;-53
2020/12/13 07:17:05;;;;;;;11.77;4.88;;;;;;;-3.19;49.99;100102.84;10459483;28;20103;-55
2020/12/13 07:22:09;;;;;;;15.32;4.82;;;;;;;-3.36;50.72;100111.75;10458172;28;20056;-52
2020/12/13 07:27:12;;;;;;;11.65;2.78;;;;;;;-3.40;51.11;100094.72;10461156;28;20245;-55
2020/12/13 07:32:13;;;;;;;11.80;5.15;;;;;;;-3.44;52.03;100095.66;10467598;28;20049;-52
2020/12/13 07:37:16;;;;;;;11.32;4.13;;;;;;;-3.45;52.49;100119.66;10467254;28;20052;-52
2020/12/13 07:42:19;;;;;;;7.60;2.97;;;;;;;-3.50;53.21;100098.38;10465966;28;20063;-54
2020/12/13 07:47:21;;;;;;;8.82;3.78;;;;;;;-3.57;53.70;100099.34;10465851;28;20040;-55
2020/12/13 07:52:23;;;;;;;10.85;3.88;;;;;;;-3.59;54.31;100111.41;10466294;28;20048;-51
2020/12/13 07:57:26;;;;;;;9.90;5.20;;;;;;;-3.44;54.06;100099.97;10465369;28;20053;-55
2020/12/13 08:02:28;;;;;;;8.13;3.53;;;;;;;-3.34;54.24;100107.44;10466633;28;20103;-51
2020/12/13 08:07:30;;;;;;;10.90;4.13;;;;;;;-3.25;54.56;100106.38;10464672;28;20143;-52
2020/12/13 08:12:38;;;;;;;13.52;4.53;;;;;;;-3.25;54.78;100101.25;10466343;28;20045;-55
2020/12/13 08:17:42;;;;;;;11.18;4.78;;;;;;;-3.25;54.77;100096.94;10464778;28;20144;-52
2020/12/13 08:22:50;;;;;;;9.88;2.95;;;;;;;-3.21;54.88;100115.72;10464762;28;20068;-53
2020/12/13 08:27:56;;;;;;;13.20;5.43;;;;;;;-3.19;55.03;100110.56;10465259;28;20037;-51
2020/12/13 08:32:59;;;;;;;5.93;2.83;;;;;;;-3.20;55.00;100103.69;10464399;28;20048;-52
2020/12/13 08:38:02;;;;;;;9.05;3.78;;;;;;;-3.24;55.32;100111.47;10462866;28;20477;-59
2020/12/13 08:43:05;;;;;;;10.93;4.07;;;;;;;-3.26;55.21;100110.69;10463984;28;20061;-52
2020/12/13 08:48:07;;;;;;;4.75;1.85;;;;;;;-3.19;55.51;100115.69;10464618;28;20135;-52
2020/12/13 08:53:22;;;;;;;7.10;3.05;;;;;;;-3.23;55.61;100109.78;10462955;28;20059;-50
2020/12/13 08:58:24;;;;;;;10.00;3.17;;;;;;;-3.16;55.50;100106.19;10463472;28;20456;-53
2020/12/13 09:03:28;;;;;;;8.77;3.50;;;;;;;-3.13;55.24;100103.53;10463415;28;20467;-51
2020/12/13 09:08:30;;;;;;;11.80;3.85;;;;;;;-3.07;55.32;100102.56;10464484;28;20067;-51
2020/12/13 09:13:33;;;;;;;15.15;5.55;;;;;;;-2.98;55.45;100093.78;10462519;28;20057;-54
2020/12/13 09:18:35;;;;;;;5.40;2.33;;;;;;;-2.90;55.44;100082.41;10462459;28;20048;-53
2020/12/13 09:23:37;;;;;;;13.43;6.65;;;;;;;-2.86;55.45;100073.75;10462753;28;20075;-52
2020/12/13 09:28:39;;;;;;;12.05;5.13;;;;;;;-2.82;55.55;100070.22;10463754;28;20049;-52
2020/12/13 09:33:41;;;;;;;14.68;5.82;;;;;;;-2.67;55.19;100063.00;10462825;28;20048;-51
2020/12/13 09:38:42;;;;;;;14.55;5.25;;;;;;;-2.49;55.10;100077.13;10462884;28;20064;-53
2020/12/13 09:43:46;;;;;;;14.02;5.60;;;;;;;-2.48;55.00;100060.81;10461627;28;20049;-56
2020/12/13 09:48:48;;;;;;;17.40;5.25;;;;;;;-2.34;54.93;100059.56;10462816;28;20143;-52
2020/12/13 09:53:50;;;;;;;15.35;5.22;;;;;;;-2.37;55.21;100064.78;10461639;28;20049;-52
2020/12/13 09:58:52;;;;;;;12.15;4.60;;;;;;;-2.35;55.11;100060.44;10461117;28;20056;-56
2020/12/13 10:03:55;;;;;;;21.55;6.97;;;;;;;-2.28;55.04;100057.69;10461479;28;20100;-54
2020/12/13 10:09:03;;;;;;;15.13;5.97;;;;;;;-2.24;55.35;100069.63;10461923;28;20428;-55
2020/12/13 10:14:07;;;;;;;16.95;5.97;;;;;;;-2.14;55.13;100066.75;10461563;28;20052;-54
2020/12/13 10:19:09;;;;;;;15.45;6.10;;;;;;;-2.06;54.88;100056.25;10460264;28;20048;-52
2020/12/13 10:24:11;;;;;;;12.05;4.60;;;;;;;-1.98;54.81;100062.00;10461705;28;20055;-51
2020/12/13 10:29:14;;;;;;;16.00;5.85;;;;;;;-2.04;55.20;100049.28;10460143;28;20056;-52
2020/12/13 10:34:16;;;;;;;12.90;4.93;;;;;;;-1.91;55.01;100055.81;10460443;28;20055;-52
2020/12/13 10:39:20;;;;;;;13.40;4.82;;;;;;;-1.91;55.10;100060.97;10459845;28;20045;-55
2020/12/13 10:44:22;;;;;;;12.10;4.85;;;;;;;-1.93;55.29;100054.16;10461221;28;20445;-52
2020/12/13 10:49:24;;;;;;;16.75;5.65;;;;;;;-1.85;55.16;100054.75;10458473;28;20049;-52
2020/12/13 10:54:26;;;;;;;12.73;5.25;;;;;;;-1.79;54.97;100061.47;10458804;28;20470;-51
2020/12/13 10:59:28;;;;;;;11.50;4.20;;;;;;;-1.92;55.54;100038.63;10461089;28;20048;-56
2020/12/13 11:04:30;;;;;;;19.48;6.93;;;;;;;-1.95;55.82;100049.03;10458956;28;20049;-51
2020/12/13 11:09:31;;;;;;;11.18;4.63;;;;;;;-1.91;55.94;100049.78;10458708;28;20474;-52
2020/12/13 11:14:34;;;;;;;13.02;4.72;;;;;;;-1.87;56.00;100048.84;10459392;28;20375;-54
2020/12/13 11:19:36;;;;;;;12.98;5.32;;;;;;;-1.85;56.08;100044.47;10460790;28;20079;-52
2020/12/13 11:24:37;;;;;;;23.05;7.93;;;;;;;-1.77;56.18;100046.81;10461954;28;20397;-55
2020/12/13 11:29:40;;;;;;;21.63;7.57;;;;;;;-1.73;56.34;100048.41;10465095;28;20047;-56
2020/12/13 11:34:42;;;;;;;14.73;6.43;;;;;;;-1.70;56.13;100046.59;10462051;28;20044;-53
2020/12/13 11:39:43;;;;;;;22.85;8.10;;;;;;;-1.69;56.23;100039.72;10457936;28;20409;-52
2020/12/13 11:44:46;;;;;;;13.52;4.53;;;;;;;-1.54;56.09;100039.28;10458870;28;20520;-54
2020/12/13 11:49:48;;;;;;;19.20;6.60;;;;;;;-1.49;55.64;100034.78;10457013;28;20045;-55
2020/12/13 11:54:49;;;;;;;20.17;7.70;;;;;;;-1.42;55.80;100028.59;10458824;28;20065;-51
2020/12/13 11:59:52;;;;;;;17.15;6.70;;;;;;;-1.37;55.36;100040.47;10459588;28;20040;-53
2020/12/13 12:04:53;;;;;;;17.00;6.60;;;;;;;-1.42;55.60;100038.03;10459790;28;20067;-55
2020/12/13 12:09:55;;;;;;;17.58;6.45;;;;;;;-1.43;55.95;100042.34;10457587;28;20048;-55
2020/12/13 12:14:58;;;;;;;17.40;5.90;;;;;;;-1.35;56.14;100049.03;10462044;28;20367;-54
2020/12/13 12:19:59;;;;;;;19.05;6.97;;;;;;;-1.31;56.18;100041.13;10464949;28;20049;-55
2020/12/13 12:25:01;;;;;;;23.02;7.65;;;;;;;-1.29;56.06;100039.34;10464490;28;20139;-55
2020/12/13 12:30:05;;;;;;;17.83;8.38;;;;;;;-1.28;56.29;100042.78;10465153;28;20044;-52
2020/12/13 12:35:07;;;;;;;18.63;7.88;;;;;;;-1.19;55.87;100034.75;10465175;28;20041;-54
2020/12/13 12:40:08;;;;;;;16.17;7.25;;;;;;;-1.28;56.00;100037.63;10465105;28;20062;-55
2020/12/13 12:45:11;;;;;;;20.90;7.15;;;;;;;-1.38;56.17;100041.38;10464681;28;20049;-52
2020/12/13 12:50:13;;;;;;;12.95;4.00;;;;;;;-1.38;56.14;100039.63;10464639;28;20040;-55
2020/12/13 12:55:14;;;;;;;17.73;6.53;;;;;;;-1.41;56.58;100027.69;10464112;28;20087;-51
2020/12/13 13:00:40;;;;;;;13.25;5.25;;;;;;;-1.41;56.37;100039.72;10463569;28;20064;-52
2020/12/13 13:05:51;;;;;;;10.82;3.50;;;;;;;-1.38;56.15;100046.53;10464651;28;20048;-52
2020/12/13 13:10:57;;;;;;;16.38;6.85;;;;;;;-1.40;56.33;100037.09;10463070;28;20102;-54
2020/12/13 13:16:00;;;;;;;17.17;6.70;;;;;;;-1.38;56.44;100028.50;10464057;28;20524;-52
2020/12/13 13:21:03;;;;;;;15.60;5.17;;;;;;;-1.30;56.64;100035.06;10462567;28;20063;-52
2020/12/13 13:26:05;;;;;;;15.18;5.00;;;;;;;-1.29;56.56;100044.50;10462248;28;20063;-52
2020/12/13 13:31:07;;;;;;;15.57;5.75;;;;;;;-1.35;56.34;100036.13;10462719;28;20063;-54
2020/12/13 13:36:12;;;;;;;17.05;6.25;;;;;;;-1.29;56.33;100035.91;10497748;28;20056;-51
2020/12/13 13:41:21;;;;;;;17.30;6.35;;;;;;;-1.21;56.33;100026.19;10503380;28;20106;-53
2020/12/13 13:46:39;;;;;;;9.43;3.85;;;;;;;-1.28;56.01;100040.19;10489469;28;20470;-56
2020/12/13 13:51:41;;;;;;;11.23;5.32;;;;;;;-1.34;56.08;100048.13;10488200;28;20040;-54
2020/12/13 13:56:46;;;;;;;16.00;5.32;;;;;;;-1.32;56.03;100038.63;10475169;28;20082;-52
2020/12/13 14:01:49;;;;;;;15.35;5.45;;;;;;;-1.35;56.16;100049.03;10459502;28;20059;-52
2020/12/13 14:07:18;;;;;;;12.35;6.13;;;;;;;-1.33;55.86;100045.47;10469264;28;20480;-52
2020/12/13 14:12:19;;;;;;;15.95;6.35;;;;;;;-1.31;55.93;100050.59;10499711;28;20048;-51
2020/12/13 14:17:21;;;;;;;12.23;4.38;;;;;;;-1.25;55.68;100055.56;10499167;28;20052;-51
2020/12/13 14:22:23;;;;;;;12.88;5.32;;;;;;;-1.25;55.82;100045.25;10497208;28;20142;-50
2020/12/13 14:27:25;;;;;;;13.63;6.00;;;;;;;-1.27;55.34;100039.28;10497890;28;20476;-54
2020/12/13 14:32:27;;;;;;;6.30;2.53;;;;;;;-1.24;55.25;100040.03;10495767;28;20056;-54
2020/12/13 14:37:29;;;;;;;17.20;6.83;;;;;;;-1.27;55.54;100045.28;10498181;28;20393;-51
2020/12/13 14:42:31;;;;;;;10.45;4.50;;;;;;;-1.28;55.29;100040.19;10498509;28;20071;-51
2020/12/13 14:47:33;;;;;;;11.13;4.28;;;;;;;-1.25;55.07;100045.25;10498842;28;20044;-53
2020/12/13 14:52:35;;;;;;;8.20;3.88;;;;;;;-1.38;55.11;100046.53;10493572;28;20048;-51
2020/12/13 14:57:37;;;;;;;11.20;4.57;;;;;;;-1.42;55.25;100036.31;10456694;28;20088;-53
2020/12/13 15:02:40;;;;;;;15.18;6.32;;;;;;;-1.32;55.19;100041.19;10458026;28;20064;-51
2020/12/13 15:07:41;;;;;;;11.88;4.70;;;;;;;-1.29;54.50;100069.44;10457389;28;20045;-54
2020/12/13 15:12:45;;;;;;;18.00;6.22;;;;;;;-1.38;54.86;100059.44;10456728;28;20059;-51
2020/12/13 15:17:47;;;;;;;12.80;4.43;;;;;;;-1.33;54.88;100042.06;10456865;28;20045;-55
2020/12/13 15:22:49;;;;;;;13.45;5.65;;;;;;;-1.26;54.71;100039.25;10482112;28;20071;-52
2020/12/13 15:27:51;;;;;;;11.30;5.60;;;;;;;-1.24;54.84;100054.69;10497477;28;20500;-54
2020/12/13 15:32:53;;;;;;;14.88;6.43;;;;;;;-1.28;54.88;100056.50;10496909;28;20131;-55
2020/12/13 15:37:55;;;;;;;12.52;5.30;;;;;;;-1.16;54.87;100040.66;10498237;28;20045;-52
2020/12/13 15:42:57;;;;;;;16.42;6.25;;;;;;;-1.14;54.42;100043.16;10495286;28;20040;-51
2020/12/13 15:48:00;;;;;;;14.48;5.43;;;;;;;-1.12;54.31;100050.88;10456037;28;20079;-51
2020/12/13 15:53:03;;;;;;;14.00;5.50;;;;;;;-1.10;53.91;100049.94;10463265;28;20464;-52
2020/12/13 15:58:04;;;;;;;18.50;6.32;;;;;;;-1.11;54.26;100048.22;10463692;28;20057;-51
2020/12/13 16:03:07;;;;;;;14.80;5.93;;;;;;;-1.03;54.39;100038.50;10493053;28;20652;-51
2020/12/13 16:08:09;;;;;;;20.75;8.43;;;;;;;-1.03;54.47;100038.50;10503856;28;20048;-51
2020/12/13 16:13:12;;;;;;;9.77;3.97;;;;;;;-0.96;53.94;100042.56;10503554;28;20048;-56
2020/12/13 16:18:14;;;;;;;13.70;6.05;;;;;;;-0.83;53.97;100037.00;10502892;28;20056;-51
2020/12/13 16:23:16;;;;;;;15.55;6.07;;;;;;;-0.76;53.71;100036.78;10503502;28;20045;-51
2020/12/13 16:28:18;;;;;;;14.20;5.85;;;;;;;-0.77;54.04;100041.97;10501673;28;20174;-52
2020/12/13 16:33:21;;;;;;;18.50;5.88;;;;;;;-0.70;53.75;100046.06;10502726;28;20062;-54
2020/12/13 16:38:25;;;;;;;16.60;4.97;;;;;;;-0.75;53.48;100035.03;10495273;28;20040;-49
2020/12/13 16:43:32;;;;;;;;;;;;;;;-0.84;53.65;100045.66;10460537;28;20049;-51
2020/12/13 16:48:42;;;;;;;9.88;3.78;;;;;;;-0.86;53.69;100057.75;10460257;28;20322;-57
2020/12/13 16:59:04;;;;;;;15.50;5.93;;;;;;;-1.17;53.81;100048.41;10458593;28;20371;-51
2020/12/13 17:04:08;;;;;;;15.57;6.03;;;;;;;-1.11;54.26;100048.22;10480358;28;20060;-51
2020/12/13 17:09:10;;;;;;;12.23;4.28;;;;;;;-1.00;53.40;100053.91;10501334;28;20553;-55
2020/12/13 17:14:12;;;;;;;13.07;5.25;;;;;;;-1.00;53.72;100047.91;10503260;28;20495;-54
2020/12/13 17:19:15;;;;;;;13.25;6.03;;;;;;;-1.04;53.74;100049.75;10505729;28;20040;-51
2020/12/13 17:24:16;;;;;;;17.35;6.70;;;;;;;-1.09;53.29;100045.63;10503523;28;20080;-51
2020/12/13 17:29:19;;;;;;;14.13;6.32;;;;;;;-1.06;53.17;100055.84;10501473;28;20044;-50
2020/12/13 17:34:21;;;;;;;9.57;3.25;;;;;;;-1.04;53.45;100049.75;10501030;28;20053;-55
2020/12/13 17:39:23;;;;;;;15.25;6.15;;;;;;;-1.00;53.15;100046.16;10500899;28;20044;-53
2020/12/13 17:44:28;;;;;;;13.57;5.80;;;;;;;-0.95;53.40;100041.69;10499234;28;20448;-52
2020/12/13 17:49:31;;;;;;;14.57;5.70;;;;;;;-0.95;53.41;100036.53;10500348;28;20102;-54
2020/12/13 17:54:40;;;;;;;15.02;6.47;;;;;;;-0.95;53.28;100039.13;10497989;28;20155;-52
2020/12/13 17:59:44;;;;;;;12.20;4.80;;;;;;;-0.88;52.79;100038.91;10497620;28;20388;-52
2020/12/13 18:04:47;;;;;;;12.35;4.47;;;;;;;-0.95;53.39;100036.53;10497906;28;20048;-51
2020/12/13 18:09:49;;;;;;;9.35;4.00;;;;;;;-1.02;53.25;100037.63;10497620;28;20055;-52
2020/12/13 18:14:53;;;;;;;16.50;5.72;;;;;;;-1.09;53.30;100025.81;10497914;28;20117;-54
2020/12/13 18:19:56;;;;;;;15.05;5.90;;;;;;;-1.13;53.28;100037.13;10498256;28;20622;-51
2020/12/13 18:24:58;;;;;;;12.52;5.18;;;;;;;-1.11;53.37;100026.75;10498760;28;20475;-51
2020/12/13 18:30:00;;;;;;;14.65;5.95;;;;;;;-1.07;53.10;100024.03;10496663;28;20480;-50
2020/12/13 18:35:03;;;;;;;11.80;5.28;;;;;;;-0.98;53.25;100012.56;10497353;28;20448;-54
2020/12/13 18:40:05;;;;;;;10.87;4.67;;;;;;;-0.90;52.83;100020.06;10495848;28;20051;-50
2020/12/13 18:45:07;;;;;;;16.42;5.18;;;;;;;-0.98;53.05;100023.75;10497100;28;20049;-50
2020/12/13 18:50:09;;;;;;;14.77;5.85;;;;;;;-0.97;52.77;100015.09;10495755;28;20041;-51
2020/12/13 18:55:11;;;;;;;14.00;4.50;;;;;;;-0.96;52.88;100015.94;10496390;28;20068;-51
2020/12/13 19:00:13;;;;;;;16.50;5.30;;;;;;;-0.90;53.43;100009.72;10497211;28;20659;-50
2020/12/13 19:05:19;;;;;;;16.00;5.95;;;;;;;-0.91;53.10;100028.69;10496475;28;20059;-51
2020/12/13 19:10:20;;;;;;;15.55;5.80;;;;;;;-0.96;53.12;100023.66;10497629;28;20470;-51
2020/12/13 19:15:22;;;;;;;10.95;2.97;;;;;;;-0.96;53.22;100027.09;10497376;28;20052;-51
2020/12/13 19:20:26;;;;;;;10.50;4.13;;;;;;;-1.02;53.38;100029.88;10497030;28;20040;-50
2020/12/13 19:25:27;;;;;;;;;;;;;;;-1.04;53.21;100031.69;10496028;28;20066;-51
2020/12/13 19:30:30;;;;;;;13.18;5.38;;;;;;;-1.02;53.16;100022.13;10496631;28;19932;-52
2020/12/13 19:35:33;;;;;;;15.50;5.03;;;;;;;-1.07;53.02;100020.63;10497518;28;20493;-52
2020/12/13 19:40:35;;;;;;;11.43;4.07;;;;;;;-1.09;53.21;100019.81;10494767;28;20389;-52
2020/12/13 19:45:37;;;;;;;16.15;5.32;;;;;;;-1.06;53.10;100014.56;10496109;28;20432;-56
2020/12/13 19:50:40;;;;;;;15.55;5.13;;;;;;;-1.02;53.01;100022.13;10495934;28;20045;-51
2020/12/13 19:55:43;;;;;;;16.02;5.22;;;;;;;-0.96;53.20;100016.75;10496606;28;20057;-51
2020/12/13 20:00:45;;;;;;;;;;;;;;;-1.00;52.94;100012.59;10496399;28;20048;-51
2020/12/13 20:05:47;;;;;;;14.35;5.53;;;;;;;-0.98;52.92;100010.84;10496714;28;19925;-53
2020/12/13 20:10:49;;;;;;;11.23;4.28;;;;;;;-0.97;52.55;100019.41;10495357;28;20131;-53
2020/12/13 20:15:56;;;;;;;14.38;5.68;;;;;;;-0.99;53.01;100006.53;10497106;28;20169;-54
2020/12/13 21:20:19;;;;;;;12.45;3.95;;;;;;;-0.94;52.53;99994.34;10497908;28;20482;-52
2020/12/13 21:26:23;;;;;;;9.57;4.10;;;;;;;-0.99;52.54;99993.66;10497991;28;20048;-53
2020/12/13 21:42:01;;;;;;;13.73;5.93;;;;;;;-0.93;52.76;100001.19;10498248;28;20056;-53
2020/12/13 21:47:09;;;;;;;11.20;4.43;;;;;;;-0.89;52.99;99995.91;10493800;28;20143;-52
2020/12/13 21:52:11;;;;;;;16.20;3.72;;;;;;;-0.87;52.49;100002.72;10494033;28;20443;-55
2020/12/13 21:57:18;;;;;;;7.20;3.10;;;;;;;-0.85;52.71;100000.09;10495963;28;20075;-52
2020/12/13 22:08:23;;;;;;;;;;;;;;;-0.82;52.72;99989.69;10495075;28;20046;-54
2020/12/13 22:29:25;;;;;;;6.55;2.78;;;;;;;-0.80;52.99;99974.97;10493075;28;20355;-53
2020/12/13 22:34:27;;;;;;;13.18;5.15;;;;;;;-0.80;52.48;99967.22;10497032;28;20048;-54
2020/12/13 22:39:28;;;;;;;14.43;5.15;;;;;;;-0.81;52.88;99973.28;10495944;28;20496;-55
2020/12/13 22:44:31;;;;;;;11.40;5.00;;;;;;;-0.75;52.55;99967.91;10496120;28;20100;-52
2020/12/13 22:49:32;;;;;;;13.50;4.78;;;;;;;-0.56;52.37;99968.94;10495348;28;20051;-52
2020/12/13 22:54:34;;;;;;;12.68;4.43;;;;;;;-0.46;52.31;99974.66;10494473;28;20079;-56
2020/12/13 22:59:36;;;;;;;14.63;5.78;;;;;;;-0.53;52.26;99966.25;10496327;28;20151;-53
2020/12/13 23:04:38;;;;;;;12.85;5.68;;;;;;;-0.55;52.29;99962.06;10495266;28;20060;-53
2020/12/13 23:09:40;;;;;;;12.15;4.70;;;;;;;-0.44;52.07;99970.25;10493739;28;20040;-52
2020/12/13 23:14:42;;;;;;;14.05;4.75;;;;;;;-0.40;52.24;99964.09;10494623;28;20064;-52
2020/12/13 23:19:44;;;;;;;13.20;4.50;;;;;;;-0.35;52.07;99953.59;10497205;28;20063;-52
2020/12/13 23:24:46;;;;;;;12.35;4.90;;;;;;;-0.31;52.08;99957.75;10479219;28;20056;-53
2020/12/13 23:29:48;;;;;;;12.70;4.80;;;;;;;-0.22;51.84;99957.41;10496011;28;20036;-53
2020/12/13 23:34:50;;;;;;;11.02;4.82;;;;;;;-0.30;52.06;99965.44;10496703;28;20404;-59
2020/12/13 23:39:52;;;;;;;13.98;5.60;;;;;;;-0.39;52.21;99960.63;10496487;28;20055;-52
2020/12/13 23:44:54;;;;;;;10.63;3.92;;;;;;;-0.43;52.37;99960.75;10498238;28;20804;-51
2020/12/13 23:49:56;;;;;;;11.88;4.55;;;;;;;-0.44;51.82;99956.50;10497262;28;20143;-55
2020/12/13 23:54:58;;;;;;;12.15;4.55;;;;;;;-0.41;51.82;99956.41;10496480;28;20059;-53
